createdAt,value
2022-10-28T00:01:36.802Z,101754.56
2022-10-28T00:04:06.077Z,101766.53
2022-10-28T00:06:37.769Z,101761.28
2022-10-28T00:09:09.782Z,101757.41
2022-10-28T00:11:41.271Z,101757.69
2022-10-28T00:14:10.951Z,101757.16
2022-10-28T00:16:40.130Z,101751.59
2022-10-28T00:19:12.163Z,101750.47
2022-10-28T00:21:44.160Z,101751.56
2022-10-28T00:24:14.583Z,101757.91
2022-10-28T00:26:44.759Z,101755.53
2022-10-28T00:29:15.919Z,101748.34
2022-10-28T00:31:45.807Z,101749.56
2022-10-28T00:34:17.020Z,101755.41
2022-10-28T00:36:48.586Z,101757.22
2022-10-28T00:39:19.159Z,101741.78
2022-10-28T00:41:51.097Z,101743.56
2022-10-28T00:44:42.508Z,101745.53
2022-10-28T00:47:18.591Z,101740.31
2022-10-28T00:49:50.455Z,101742.16
2022-10-28T00:52:25.402Z,101751.00
2022-10-28T00:54:55.848Z,101747.56
2022-10-28T00:57:29.469Z,101751.50
2022-10-28T00:59:59.724Z,101747.44
2022-10-28T01:02:29.073Z,101751.41
2022-10-28T01:04:58.052Z,101747.44
2022-10-28T01:07:28.321Z,101748.06
2022-10-28T01:09:57.695Z,101744.31
2022-10-28T01:12:34.993Z,101746.25
2022-10-28T01:15:13.789Z,101744.47
2022-10-28T01:17:56.038Z,101749.25
2022-10-28T01:20:48.332Z,101750.22
2022-10-28T01:23:27.399Z,101742.91
2022-10-28T01:26:35.231Z,101755.50
2022-10-28T01:29:41.090Z,101755.00
2022-10-28T01:32:18.218Z,101751.47
2022-10-28T01:34:58.120Z,101753.16
2022-10-28T01:37:36.208Z,101740.72
2022-10-28T01:40:12.570Z,101745.75
2022-10-28T01:42:47.320Z,101744.66
2022-10-28T01:45:21.126Z,101754.09
2022-10-28T01:47:58.085Z,101762.41
2022-10-28T01:50:33.469Z,101767.91
2022-10-28T01:53:08.800Z,101749.34
2022-10-28T01:55:40.190Z,101741.94
2022-10-28T01:58:12.727Z,101743.81
2022-10-28T02:00:43.882Z,101741.81
2022-10-28T02:03:14.323Z,101748.16
2022-10-28T02:05:45.807Z,101744.31
2022-10-28T02:08:34.292Z,101748.38
2022-10-28T02:11:19.203Z,101746.22
2022-10-28T02:14:00.974Z,101749.09
2022-10-28T02:16:39.117Z,101749.84
2022-10-28T02:19:16.699Z,101734.41
2022-10-28T02:21:57.675Z,101735.47
2022-10-28T02:24:39.391Z,101736.78
2022-10-28T02:27:14.535Z,101738.47
2022-10-28T02:29:48.408Z,101733.56
2022-10-28T02:32:21.586Z,101722.28
2022-10-28T02:34:56.283Z,101736.53
2022-10-28T02:37:30.469Z,101734.50
2022-10-28T02:40:04.560Z,101738.69
2022-10-28T02:42:37.768Z,101739.16
2022-10-28T02:45:12.808Z,101738.81
2022-10-28T02:47:45.555Z,101735.22
2022-10-28T02:50:21.244Z,101727.66
2022-10-28T02:52:54.245Z,101720.63
2022-10-28T02:55:26.149Z,101718.81
2022-10-28T02:57:55.417Z,101710.34
2022-10-28T03:00:25.520Z,101707.69
2022-10-28T03:02:54.441Z,101709.59
2022-10-28T03:05:24.774Z,101697.88
2022-10-28T03:07:54.043Z,101695.16
2022-10-28T03:10:23.197Z,101686.75
2022-10-28T03:12:52.123Z,101691.19
2022-10-28T03:15:21.002Z,101678.88
2022-10-28T03:17:49.969Z,101678.34
2022-10-28T03:20:18.941Z,101675.09
2022-10-28T03:22:50.957Z,101674.28
2022-10-28T03:25:20.041Z,101676.84
2022-10-28T03:27:48.928Z,101666.34
2022-10-28T03:30:18.441Z,101668.00
2022-10-28T03:32:47.453Z,101670.03
2022-10-28T03:35:16.542Z,101680.44
2022-10-28T03:37:45.768Z,101669.28
2022-10-28T03:40:16.210Z,101668.22
2022-10-28T03:42:45.561Z,101659.59
2022-10-28T03:45:14.553Z,101670.97
2022-10-28T03:47:44.249Z,101670.00
2022-10-28T03:50:13.238Z,101666.28
2022-10-28T03:52:43.528Z,101663.78
2022-10-28T03:55:12.523Z,101663.03
2022-10-28T03:57:42.777Z,101662.53
2022-10-28T04:00:12.614Z,101654.75
2022-10-28T04:02:41.523Z,101652.44
2022-10-28T04:05:10.594Z,101662.59
2022-10-28T04:07:39.492Z,101663.19
2022-10-28T04:10:08.873Z,101652.31
2022-10-28T04:12:38.050Z,101652.28
2022-10-28T04:15:09.195Z,101657.44
2022-10-28T04:17:38.097Z,101649.41
2022-10-28T04:20:08.170Z,101655.94
2022-10-28T04:22:37.087Z,101655.00
2022-10-28T04:25:06.566Z,101653.31
2022-10-28T04:27:35.536Z,101656.56
2022-10-28T04:30:05.582Z,101665.28
2022-10-28T04:32:35.857Z,101654.34
2022-10-28T04:35:05.217Z,101650.50
2022-10-28T04:37:34.219Z,101649.66
2022-10-28T04:40:03.263Z,101642.03
2022-10-28T04:42:32.189Z,101645.50
2022-10-28T04:45:01.099Z,101640.13
2022-10-28T04:47:30.052Z,101649.56
2022-10-28T04:50:00.350Z,101650.38
2022-10-28T04:52:29.271Z,101652.91
2022-10-28T04:54:58.232Z,101663.44
2022-10-28T04:57:27.272Z,101663.44
2022-10-28T04:59:56.223Z,101674.22
2022-10-28T05:02:25.320Z,101664.91
2022-10-28T05:04:54.302Z,101660.63
2022-10-28T05:07:24.599Z,101655.34
2022-10-28T05:09:53.504Z,101649.03
2022-10-28T05:12:22.741Z,101640.03
2022-10-28T05:14:53.150Z,101638.59
2022-10-28T05:17:22.208Z,101635.72
2022-10-28T05:19:51.175Z,101633.34
2022-10-28T05:22:20.090Z,101632.13
2022-10-28T05:24:50.611Z,101633.22
2022-10-28T05:27:19.515Z,101632.66
2022-10-28T05:29:48.456Z,101630.22
2022-10-28T05:32:17.401Z,101621.97
2022-10-28T05:34:46.293Z,101618.25
2022-10-28T05:37:15.199Z,101617.06
2022-10-28T05:39:44.189Z,101615.75
2022-10-28T05:42:14.469Z,101611.97
2022-10-28T05:44:43.510Z,101610.75
2022-10-28T05:47:12.456Z,101612.56
2022-10-28T05:49:41.433Z,101613.88
2022-10-28T05:52:10.442Z,101611.81
2022-10-28T05:54:39.423Z,101602.25
2022-10-28T05:57:08.345Z,101608.72
2022-10-28T05:59:38.601Z,101603.28
2022-10-28T06:02:11.035Z,101613.69
2022-10-28T06:04:39.931Z,101607.44
2022-10-28T06:07:09.130Z,101609.72
2022-10-28T06:09:38.126Z,101607.56
2022-10-28T06:12:06.923Z,101606.16
2022-10-28T06:14:37.179Z,101608.34
2022-10-28T06:17:06.152Z,101607.50
2022-10-28T06:19:35.099Z,101614.81
2022-10-28T06:22:04.213Z,101609.41
2022-10-28T06:24:33.133Z,101609.41
2022-10-28T06:27:02.050Z,101609.78
2022-10-28T06:29:31.038Z,101608.13
2022-10-28T06:32:01.345Z,101616.72
2022-10-28T06:34:30.283Z,101614.69
2022-10-28T06:36:59.218Z,101617.44
2022-10-28T06:39:28.155Z,101620.31
2022-10-28T06:41:57.069Z,101617.78
2022-10-28T06:44:26.159Z,101616.56
2022-10-28T06:46:57.378Z,101624.47
2022-10-28T06:49:28.511Z,101618.09
2022-10-28T06:51:57.442Z,101621.09
2022-10-28T06:54:26.364Z,101619.25
2022-10-28T06:56:55.299Z,101621.78
2022-10-28T06:59:24.276Z,101627.16
2022-10-28T07:01:53.269Z,101625.00
2022-10-28T07:04:22.349Z,101629.19
2022-10-28T07:06:56.496Z,101629.78
2022-10-28T07:09:25.451Z,101621.72
2022-10-28T07:11:55.333Z,101619.59
2022-10-28T07:14:24.577Z,101626.38
2022-10-28T07:16:53.621Z,101621.84
2022-10-28T07:19:22.790Z,101620.47
2022-10-28T07:21:53.096Z,101612.19
2022-10-28T07:24:22.065Z,101608.22
2022-10-28T07:26:53.052Z,101611.44
2022-10-28T07:29:24.473Z,101614.00
2022-10-28T07:31:56.013Z,101616.78
2022-10-28T07:34:27.224Z,101616.13
2022-10-28T07:36:58.118Z,101614.25
2022-10-28T07:39:28.445Z,101615.38
2022-10-28T07:41:57.452Z,101615.31
2022-10-28T07:44:26.386Z,101617.53
2022-10-28T07:46:58.015Z,101616.03
2022-10-28T07:49:27.501Z,101612.75
2022-10-28T07:51:57.964Z,101614.84
2022-10-28T07:54:26.925Z,101612.22
2022-10-28T07:56:55.823Z,101616.84
2022-10-28T07:59:26.915Z,101618.72
2022-10-28T08:01:56.383Z,101622.78
2022-10-28T08:04:25.435Z,101617.50
2022-10-28T08:09:24.939Z,101623.66
2022-10-28T08:11:57.605Z,101611.00
2022-10-28T08:14:26.521Z,101616.69
2022-10-28T08:16:55.400Z,101606.41
2022-10-28T08:19:24.337Z,101604.75
2022-10-28T08:21:53.259Z,101594.44
2022-10-28T08:24:22.230Z,101600.94
2022-10-28T08:26:52.567Z,101593.97
2022-10-28T08:29:23.412Z,101587.03
2022-10-28T08:31:55.193Z,101598.69
2022-10-28T08:34:24.175Z,101595.31
2022-10-28T08:36:53.200Z,101592.59
2022-10-28T08:39:22.248Z,101591.59
2022-10-28T08:41:56.927Z,101587.38
2022-10-28T08:44:49.062Z,101588.03
2022-10-28T08:47:30.833Z,101586.84
2022-10-28T08:50:04.537Z,101590.69
2022-10-28T08:52:40.247Z,101576.66
2022-10-28T08:55:16.041Z,101572.53
2022-10-28T08:57:51.863Z,101580.19
2022-10-28T09:00:24.257Z,101578.25
2022-10-28T09:03:06.640Z,101575.56
2022-10-28T09:05:36.016Z,101582.00
2022-10-28T09:08:05.679Z,101578.28
2022-10-28T09:10:56.399Z,101579.03
2022-10-28T09:13:39.986Z,101576.28
2022-10-28T09:16:16.172Z,101578.31
2022-10-28T09:18:53.830Z,101576.09
2022-10-28T09:21:32.712Z,101574.75
2022-10-28T09:24:08.841Z,101567.31
2022-10-28T09:26:48.877Z,101565.44
2022-10-28T09:29:37.175Z,101556.13
2022-10-28T09:32:18.059Z,101552.47
2022-10-28T09:34:50.918Z,101557.09
2022-10-28T09:37:23.840Z,101559.59
2022-10-28T09:39:56.797Z,101553.00
2022-10-28T09:42:30.484Z,101562.44
2022-10-28T09:45:05.992Z,101553.34
2022-10-28T09:47:40.050Z,101564.13
2022-10-28T09:50:20.004Z,101567.19
2022-10-28T09:52:56.380Z,101560.38
2022-10-28T09:55:25.685Z,101559.19
2022-10-28T09:57:54.906Z,101558.56
2022-10-28T10:00:25.568Z,101551.59
2022-10-28T10:02:58.503Z,101564.88
2022-10-28T10:05:27.945Z,101563.19
2022-10-28T10:07:59.978Z,101560.06
2022-10-28T10:10:33.288Z,101562.38
2022-10-28T10:13:05.671Z,101554.72
2022-10-28T10:15:39.909Z,101562.22
2022-10-28T10:18:16.701Z,101561.88
2022-10-28T10:20:52.482Z,101558.34
2022-10-28T10:23:28.816Z,101556.50
2022-10-28T10:26:00.995Z,101559.72
2022-10-28T10:28:31.402Z,101554.41
2022-10-28T10:31:03.984Z,101560.91
2022-10-28T10:33:35.745Z,101550.13
2022-10-28T10:36:17.298Z,101551.19
2022-10-28T10:38:50.206Z,101544.31
2022-10-28T10:41:35.329Z,101550.22
2022-10-28T10:44:24.726Z,101546.91
2022-10-28T10:47:19.387Z,101537.41
2022-10-28T10:49:49.750Z,101530.97
2022-10-28T10:52:22.671Z,101522.31
2022-10-28T10:55:04.478Z,101529.53
2022-10-28T10:57:34.690Z,101527.75
2022-10-28T11:00:04.565Z,101525.19
2022-10-28T11:02:39.698Z,101522.94
2022-10-28T11:05:11.487Z,101517.44
2022-10-28T11:07:48.745Z,101516.69
2022-10-28T11:10:25.596Z,101508.75
2022-10-28T11:12:57.046Z,101508.66
2022-10-28T11:15:28.909Z,101500.16
2022-10-28T11:18:01.801Z,101503.31
2022-10-28T11:20:40.749Z,101503.13
2022-10-28T11:23:23.662Z,101500.00
2022-10-28T11:25:55.777Z,101502.06
2022-10-28T11:28:56.837Z,101498.63
2022-10-28T11:31:40.675Z,101496.53
2022-10-28T11:34:30.133Z,101495.31
2022-10-28T11:37:09.439Z,101495.41
2022-10-28T11:39:50.795Z,101489.53
2022-10-28T11:42:32.473Z,101491.28
2022-10-28T11:45:10.009Z,101482.25
2022-10-28T11:47:55.671Z,101491.25
2022-10-28T11:50:36.221Z,101480.22
2022-10-28T11:53:37.952Z,101489.00
2022-10-28T11:56:18.485Z,101481.22
2022-10-28T11:58:57.429Z,101482.22
2022-10-28T12:01:49.692Z,101490.63
2022-10-28T12:04:33.963Z,101481.44
2022-10-28T12:07:23.927Z,101476.22
2022-10-28T12:10:08.262Z,101478.59
2022-10-28T12:12:47.270Z,101475.81
2022-10-28T12:15:26.659Z,101465.88
2022-10-28T12:18:06.291Z,101473.75
2022-10-28T12:20:43.328Z,101482.72
2022-10-28T12:23:17.911Z,101477.22
2022-10-28T12:25:52.553Z,101477.72
2022-10-28T12:28:25.946Z,101481.03
2022-10-28T12:30:57.335Z,101480.03
2022-10-28T12:33:28.662Z,101480.25
2022-10-28T12:36:20.046Z,101475.84
2022-10-28T12:38:57.417Z,101473.81
2022-10-28T12:41:31.918Z,101476.03
2022-10-28T12:44:05.554Z,101464.34
2022-10-28T12:49:32.660Z,101467.66
2022-10-28T12:52:08.785Z,101465.72
2022-10-28T12:54:53.689Z,101463.59
2022-10-28T12:57:25.667Z,101464.50
2022-10-28T13:00:00.710Z,101466.97
2022-10-28T13:02:36.479Z,101462.91
2022-10-28T13:05:06.806Z,101462.81
2022-10-28T13:07:58.535Z,101458.25
2022-10-28T13:10:38.236Z,101458.44
2022-10-28T13:13:33.576Z,101455.34
2022-10-28T13:16:14.547Z,101463.50
2022-10-28T13:19:18.600Z,101458.69
2022-10-28T13:22:07.190Z,101462.69
2022-10-28T13:24:50.345Z,101457.44
2022-10-28T13:27:22.991Z,101453.56
2022-10-28T13:29:54.463Z,101455.38
2022-10-28T13:32:38.616Z,101452.03
2022-10-28T13:35:22.063Z,101446.31
2022-10-28T13:37:54.063Z,101439.84
2022-10-28T13:40:40.040Z,101445.56
2022-10-28T13:43:19.783Z,101443.28
2022-10-28T13:45:52.472Z,101450.59
2022-10-28T13:48:49.193Z,101442.22
2022-10-28T13:51:48.769Z,101436.69
2022-10-28T13:54:53.504Z,101434.84
2022-10-28T13:57:29.679Z,101436.50
2022-10-28T14:00:02.104Z,101425.91
2022-10-28T14:02:38.705Z,101433.78
2022-10-28T14:05:10.189Z,101435.75
2022-10-28T14:07:51.297Z,101425.78
2022-10-28T14:10:26.385Z,101434.59
2022-10-28T14:12:58.464Z,101435.81
2022-10-28T14:15:34.772Z,101428.34
2022-10-28T14:18:37.283Z,101423.91
2022-10-28T14:21:01.362Z,101426.28
2022-10-28T14:24:06.598Z,101426.84
2022-10-28T14:27:20.297Z,101419.44
2022-10-28T14:29:51.334Z,101415.81
2022-10-28T14:32:44.435Z,101415.72
2022-10-28T14:35:29.345Z,101420.38
2022-10-28T14:38:32.932Z,101415.09
2022-10-28T14:41:16.907Z,101420.97
2022-10-28T14:43:58.874Z,101412.78
2022-10-28T14:46:41.626Z,101408.50
2022-10-28T14:49:21.332Z,101404.03
2022-10-28T14:51:52.095Z,101403.75
2022-10-28T14:54:40.884Z,101406.41
2022-10-28T14:57:10.424Z,101410.06
2022-10-28T14:59:41.523Z,101415.53
2022-10-28T15:02:14.558Z,101415.06
2022-10-28T15:04:47.388Z,101419.75
2022-10-28T15:07:19.266Z,101414.75
2022-10-28T15:09:53.307Z,101405.81
2022-10-28T15:12:25.954Z,101405.81
2022-10-28T15:14:57.365Z,101401.56
2022-10-28T15:17:28.036Z,101410.19
2022-10-28T15:20:00.072Z,101406.69
2022-10-28T15:22:32.055Z,101412.88
2022-10-28T15:25:03.100Z,101407.41
2022-10-28T15:27:33.688Z,101400.81
2022-10-28T15:30:03.047Z,101404.34
2022-10-28T15:32:36.377Z,101397.34
2022-10-28T15:35:39.409Z,101393.38
2022-10-28T15:38:39.106Z,101397.22
2022-10-28T15:41:49.354Z,101403.03
2022-10-28T15:44:32.462Z,101406.34
2022-10-28T15:47:05.528Z,101403.88
2022-10-28T15:49:40.372Z,101410.69
2022-10-28T15:52:42.280Z,101415.00
2022-10-28T15:55:47.838Z,101418.38
2022-10-28T15:58:36.747Z,101415.34
2022-10-28T16:01:10.978Z,101418.50
2022-10-28T16:03:51.078Z,101412.69
2022-10-28T16:06:24.942Z,101410.03
2022-10-28T16:09:12.753Z,101408.03
2022-10-28T16:11:45.415Z,101401.09
2022-10-28T16:14:34.943Z,101409.69
2022-10-28T16:17:12.684Z,101415.16
2022-10-28T16:19:44.983Z,101403.91
2022-10-28T16:22:15.236Z,101410.38
2022-10-28T16:24:45.705Z,101407.22
2022-10-28T16:27:23.206Z,101422.97
2022-10-28T16:29:53.003Z,101417.50
2022-10-28T16:32:28.829Z,101410.00
2022-10-28T16:34:58.595Z,101411.66
2022-10-28T16:37:29.817Z,101409.38
2022-10-28T16:40:00.140Z,101424.13
2022-10-28T16:42:29.147Z,101432.22
2022-10-28T16:44:58.298Z,101426.88
2022-10-28T16:47:27.444Z,101427.56
2022-10-28T16:49:57.830Z,101426.22
2022-10-28T16:52:29.653Z,101428.91
2022-10-28T16:55:00.351Z,101428.41
2022-10-28T16:57:29.596Z,101437.16
2022-10-28T16:59:58.606Z,101429.34
2022-10-28T17:02:31.581Z,101426.03
2022-10-28T17:05:04.894Z,101433.44
2022-10-28T17:07:33.933Z,101441.41
2022-10-28T17:10:04.649Z,101446.97
2022-10-28T17:12:33.582Z,101452.25
2022-10-28T17:15:02.537Z,101441.16
2022-10-28T17:17:31.578Z,101443.63
2022-10-28T17:20:00.571Z,101444.31
2022-10-28T17:22:29.499Z,101446.34
2022-10-28T17:24:58.567Z,101444.78
2022-10-28T17:27:28.912Z,101452.38
2022-10-28T17:29:57.992Z,101451.41
2022-10-28T17:32:27.279Z,101453.38
2022-10-28T17:34:56.209Z,101449.25
2022-10-28T17:37:25.147Z,101445.97
2022-10-28T17:42:29.365Z,101446.50
2022-10-28T17:44:58.347Z,101445.50
2022-10-28T17:47:27.214Z,101453.97
2022-10-28T17:49:56.395Z,101459.28
2022-10-28T17:52:25.469Z,101454.84
2022-10-28T17:54:54.845Z,101459.19
2022-10-28T17:57:23.817Z,101463.50
2022-10-28T17:59:54.059Z,101458.84
2022-10-28T18:02:23.603Z,101458.19
2022-10-28T18:04:52.678Z,101464.31
2022-10-28T18:07:21.633Z,101453.38
2022-10-28T18:09:50.552Z,101454.75
2022-10-28T18:12:19.547Z,101458.06
2022-10-28T18:14:48.526Z,101460.72
2022-10-28T18:17:18.956Z,101463.56
2022-10-28T18:19:47.847Z,101463.03
2022-10-28T18:22:16.963Z,101458.19
2022-10-28T18:24:45.939Z,101468.19
2022-10-28T18:27:14.957Z,101468.00
2022-10-28T18:29:44.392Z,101460.38
2022-10-28T18:32:13.530Z,101464.69
2022-10-28T18:34:43.856Z,101469.84
2022-10-28T18:37:13.032Z,101468.34
2022-10-28T18:39:42.255Z,101475.00
2022-10-28T18:42:12.416Z,101481.28
2022-10-28T18:44:41.918Z,101485.13
2022-10-28T18:47:10.834Z,101484.59
2022-10-28T18:49:39.846Z,101484.81
2022-10-28T18:52:10.132Z,101477.13
2022-10-28T18:54:39.044Z,101486.91
2022-10-28T18:57:07.972Z,101485.31
2022-10-28T18:59:43.178Z,101483.97
2022-10-28T19:02:16.544Z,101481.59
2022-10-28T19:04:45.623Z,101495.91
2022-10-28T19:07:16.010Z,101504.34
2022-10-28T19:09:44.930Z,101490.72
2022-10-28T19:12:14.002Z,101505.66
2022-10-28T19:14:42.906Z,101502.84
2022-10-28T19:17:12.387Z,101501.84
2022-10-28T19:19:41.279Z,101511.31
2022-10-28T19:22:10.246Z,101521.56
2022-10-28T19:24:40.570Z,101523.84
2022-10-28T19:27:09.618Z,101516.41
2022-10-28T19:29:38.937Z,101518.03
2022-10-28T19:32:07.925Z,101522.88
2022-10-28T19:34:37.025Z,101527.44
2022-10-28T19:37:05.939Z,101541.78
2022-10-28T19:39:34.883Z,101539.13
2022-10-28T19:42:05.208Z,101545.94
2022-10-28T19:44:34.113Z,101548.88
2022-10-28T19:47:03.083Z,101539.59
2022-10-28T19:49:37.228Z,101543.28
2022-10-28T19:52:07.277Z,101541.81
2022-10-28T19:54:36.210Z,101545.06
2022-10-28T19:57:06.636Z,101549.53
2022-10-28T19:59:35.599Z,101549.50
2022-10-28T20:02:05.773Z,101566.84
2022-10-28T20:04:34.918Z,101579.31
2022-10-28T20:07:06.732Z,101580.09
2022-10-28T20:09:35.721Z,101581.19
2022-10-28T20:12:06.434Z,101592.25
2022-10-28T20:14:35.881Z,101594.97
2022-10-28T20:17:06.713Z,101604.44
2022-10-28T20:19:35.929Z,101614.38
2022-10-28T20:22:05.158Z,101610.31
2022-10-28T20:24:34.245Z,101601.00
2022-10-28T20:27:03.277Z,101606.78
2022-10-28T20:29:33.616Z,101599.38
2022-10-28T20:32:02.695Z,101606.28
2022-10-28T20:34:31.604Z,101609.41
2022-10-28T20:37:00.857Z,101617.88
2022-10-28T20:39:29.987Z,101629.41
2022-10-28T20:41:58.938Z,101633.91
2022-10-28T20:44:28.700Z,101636.41
2022-10-28T20:46:59.015Z,101640.56
2022-10-28T20:49:27.956Z,101653.63
2022-10-28T20:51:56.850Z,101661.28
2022-10-28T20:54:25.765Z,101659.63
2022-10-28T20:56:54.728Z,101665.03
2022-10-28T20:59:23.871Z,101658.50
2022-10-28T21:01:53.052Z,101650.41
2022-10-28T21:04:23.957Z,101648.13
2022-10-28T21:06:53.022Z,101655.09
2022-10-28T21:09:21.982Z,101654.41
2022-10-28T21:11:50.907Z,101656.44
2022-10-28T21:14:20.272Z,101676.00
2022-10-28T21:16:51.466Z,101684.13
2022-10-28T21:19:21.787Z,101675.47
2022-10-28T21:21:50.829Z,101685.13
2022-10-28T21:24:19.844Z,101680.28
2022-10-28T21:26:52.238Z,101671.50
2022-10-28T21:29:21.225Z,101691.19
2022-10-28T21:31:51.454Z,101684.38
2022-10-28T21:34:21.688Z,101695.75
2022-10-28T21:36:50.881Z,101699.59
2022-10-28T21:39:25.876Z,101699.69
2022-10-28T21:41:54.776Z,101709.78
2022-10-28T21:44:23.783Z,101711.41
2022-10-28T21:46:54.667Z,101706.28
2022-10-28T21:49:25.042Z,101711.63
2022-10-28T21:51:54.085Z,101710.25
2022-10-28T21:54:23.118Z,101718.75
2022-10-28T21:56:52.728Z,101722.94
2022-10-28T21:59:21.755Z,101723.03
2022-10-28T22:01:50.932Z,101724.44
2022-10-28T22:04:19.915Z,101720.72
2022-10-28T22:06:50.238Z,101727.44
2022-10-28T22:09:19.237Z,101727.75
2022-10-28T22:11:48.164Z,101729.75
2022-10-28T22:14:17.418Z,101731.00
2022-10-28T22:16:46.360Z,101721.00
2022-10-28T22:19:16.148Z,101725.53
2022-10-28T22:21:45.302Z,101734.88
2022-10-28T22:24:15.715Z,101736.97
2022-10-28T22:26:44.813Z,101737.81
2022-10-28T22:29:13.992Z,101735.06
2022-10-28T22:31:43.008Z,101729.34
2022-10-28T22:34:12.000Z,101726.56
2022-10-28T22:36:43.143Z,101728.25
2022-10-28T22:39:12.328Z,101731.63
2022-10-28T22:41:42.647Z,101734.72
2022-10-28T22:44:11.666Z,101729.31
2022-10-28T22:46:41.077Z,101734.06
2022-10-28T22:49:10.046Z,101737.53
2022-10-28T22:51:39.023Z,101738.69
2022-10-28T22:54:08.137Z,101735.50
2022-10-28T22:56:37.071Z,101740.06
2022-10-28T22:59:07.606Z,101734.09
2022-10-28T23:01:36.628Z,101732.59
2022-10-28T23:04:09.966Z,101730.78
2022-10-28T23:06:38.970Z,101735.66
2022-10-28T23:09:07.908Z,101730.22
2022-10-28T23:11:37.273Z,101739.72
2022-10-28T23:14:07.753Z,101737.91
2022-10-28T23:16:36.704Z,101746.25
2022-10-28T23:19:05.755Z,101755.00
2022-10-28T23:21:34.809Z,101747.19
2022-10-28T23:24:03.717Z,101751.34
2022-10-28T23:26:32.700Z,101760.13
2022-10-28T23:29:01.905Z,101755.13
2022-10-28T23:31:32.230Z,101756.22
2022-10-28T23:34:01.717Z,101765.69
2022-10-28T23:36:30.604Z,101764.28
2022-10-28T23:38:59.515Z,101758.84
2022-10-28T23:41:28.443Z,101764.84
2022-10-28T23:44:00.429Z,101760.69
2022-10-28T23:46:36.492Z,101752.31
2022-10-28T23:49:06.521Z,101753.97
2022-10-28T23:51:35.473Z,101753.81
2022-10-28T23:54:04.472Z,101768.94
2022-10-28T23:56:33.384Z,101774.59
2022-10-28T23:59:02.302Z,101771.41
